Aérodrome :
LOGIN :

S'inscrire | Disclaimer

   EN    FR    IT 

 










Légende :    VFR   VFR Marginal   IFR   IFR Intensif   IFR Très Intensif
Visi : 
Plafond : 
>= 8 km
>= 3000ft
5 à 8 km
1000 à 3000 ft
1500m à 5 km
500 à 1000 ft
800 à 1500m
200 à 500 ft
< 800m
< 200 ft
Symboles :   Orages  Brouillard  Fortes neiges  Fortes précipitations  Vent > 20 kt
SIGMETs :   Divers  Orages  Givrage  Turbulence  Onde Orograph.  Cendres Volcan.







- Altitude de l'aérodrome : 741 ft
- Code IATA : JKG


ESGJ - Jönköping

DERNIER METAR :
  • 191020Z 23012KT 9999 BKN009 05/04 Q1000 REDZ R19/290070

METARs EXPIRÉS :
  • 190950Z 23014KT 9000 -DZ FEW011 SCT016 BKN021 05/04 Q1000 RERA R19/290070
  • 190920Z 23012KT 9000 BR SCT007 BKN022 BKN040 05/04 Q1000 R19/290070
  • 190850Z 23011KT 4000 -RA BR FEW003 BKN006 05/04 Q1001 R19/290070
  • 190820Z 22013KT 8000 -DZ BKN006 BKN009 04/04 Q1001 R19/290070
  • 190750Z 22014KT 9999 SCT007 BKN010 BKN016 04/04 Q1001 REDZ R19/290070

TAF TAF ESGJ
Valide du 19 à 09h jusqu'au 19 à 18h UTC


190830Z 1909/1918 22013KT 9999 SCT006 BKN020
TEMPO 1909/1918 4000 SHRA BR BKN008 BKN020CB
Pas de NOTAMs connus pour ce terrain.



MET'MAP, la Météo Aéronautique d'un coup d'oeil ! - Copyright ORBIFLY Décembre 2007 - Disclaimer

ORBIFLY MET'MAP TEAM :

Programmation & Développement : Alexandra Zaïnal
Conception & Développement : Baudouin d'Aumeries
Co-Programmation & Développement : Marc-Olivier Méhu
Soutien technique & logistique : Manuel Goepfert

Contact : metmap@orbifly.com




SOURCES & CREDITS :

   NOAA